sensor_id;sensor_type;location;lat;lon;timestamp;pressure;altitude;pressure_sealevel;temperature
15680;BMP180;15488;48.114;11.532;2023-08-12T00:01:21;95824.00;;;27.60
15680;BMP180;15488;48.114;11.532;2023-08-12T00:03:51;95818.00;;;27.60
15680;BMP180;15488;48.114;11.532;2023-08-12T00:06:19;95823.00;;;27.60
15680;BMP180;15488;48.114;11.532;2023-08-12T00:08:47;95819.00;;;27.50
15680;BMP180;15488;48.114;11.532;2023-08-12T00:11:14;95821.00;;;27.50
15680;BMP180;15488;48.114;11.532;2023-08-12T00:13:42;95819.00;;;27.50
15680;BMP180;15488;48.114;11.532;2023-08-12T00:16:09;95823.00;;;27.50
15680;BMP180;15488;48.114;11.532;2023-08-12T00:18:37;95817.00;;;27.50
15680;BMP180;15488;48.114;11.532;2023-08-12T00:21:07;95805.00;;;27.40
15680;BMP180;15488;48.114;11.532;2023-08-12T00:23:39;95803.00;;;27.40
15680;BMP180;15488;48.114;11.532;2023-08-12T00:26:07;95804.00;;;27.40
15680;BMP180;15488;48.114;11.532;2023-08-12T00:28:34;95805.00;;;27.40
15680;BMP180;15488;48.114;11.532;2023-08-12T00:31:01;95802.00;;;27.30
15680;BMP180;15488;48.114;11.532;2023-08-12T00:33:29;95802.00;;;27.30
15680;BMP180;15488;48.114;11.532;2023-08-12T00:35:56;95797.00;;;27.30
15680;BMP180;15488;48.114;11.532;2023-08-12T00:38:24;95797.00;;;27.30
15680;BMP180;15488;48.114;11.532;2023-08-12T00:40:53;95791.00;;;27.20
15680;BMP180;15488;48.114;11.532;2023-08-12T00:43:20;95792.00;;;27.20
15680;BMP180;15488;48.114;11.532;2023-08-12T00:45:48;95792.00;;;27.20
15680;BMP180;15488;48.114;11.532;2023-08-12T00:48:16;95796.00;;;27.20
15680;BMP180;15488;48.114;11.532;2023-08-12T00:50:44;95792.00;;;27.20
15680;BMP180;15488;48.114;11.532;2023-08-12T00:53:12;95793.00;;;27.10
15680;BMP180;15488;48.114;11.532;2023-08-12T00:55:40;95795.00;;;27.10
15680;BMP180;15488;48.114;11.532;2023-08-12T00:58:09;95790.00;;;27.10
15680;BMP180;15488;48.114;11.532;2023-08-12T01:00:37;95792.00;;;27.10
15680;BMP180;15488;48.114;11.532;2023-08-12T01:03:06;95786.00;;;27.00
15680;BMP180;15488;48.114;11.532;2023-08-12T01:05:34;95787.00;;;27.00
15680;BMP180;15488;48.114;11.532;2023-08-12T01:08:02;95789.00;;;27.00
15680;BMP180;15488;48.114;11.532;2023-08-12T01:10:35;95783.00;;;27.00
15680;BMP180;15488;48.114;11.532;2023-08-12T01:13:13;95787.00;;;26.90
15680;BMP180;15488;48.114;11.532;2023-08-12T01:15:42;95777.00;;;26.90
15680;BMP180;15488;48.114;11.532;2023-08-12T01:18:11;95775.00;;;26.90
15680;BMP180;15488;48.114;11.532;2023-08-12T01:20:39;95775.00;;;26.90
15680;BMP180;15488;48.114;11.532;2023-08-12T01:23:10;95771.00;;;26.80
15680;BMP180;15488;48.114;11.532;2023-08-12T01:25:39;95775.00;;;26.80
15680;BMP180;15488;48.114;11.532;2023-08-12T01:28:07;95775.00;;;26.80
15680;BMP180;15488;48.114;11.532;2023-08-12T01:30:39;95767.00;;;26.80
15680;BMP180;15488;48.114;11.532;2023-08-12T01:33:09;95766.00;;;26.70
15680;BMP180;15488;48.114;11.532;2023-08-12T01:35:41;95768.00;;;26.70
15680;BMP180;15488;48.114;11.532;2023-08-12T01:38:11;95764.00;;;26.70
15680;BMP180;15488;48.114;11.532;2023-08-12T01:40:39;95765.00;;;26.70
15680;BMP180;15488;48.114;11.532;2023-08-12T01:43:07;95767.00;;;26.70
15680;BMP180;15488;48.114;11.532;2023-08-12T01:45:35;95763.00;;;26.60
15680;BMP180;15488;48.114;11.532;2023-08-12T01:48:03;95757.00;;;26.60
15680;BMP180;15488;48.114;11.532;2023-08-12T01:50:31;95754.00;;;26.60
15680;BMP180;15488;48.114;11.532;2023-08-12T01:52:58;95755.00;;;26.50
15680;BMP180;15488;48.114;11.532;2023-08-12T01:55:27;95753.00;;;26.50
15680;BMP180;15488;48.114;11.532;2023-08-12T01:57:55;95748.00;;;26.50
15680;BMP180;15488;48.114;11.532;2023-08-12T02:00:23;95751.00;;;26.50
15680;BMP180;15488;48.114;11.532;2023-08-12T02:02:50;95754.00;;;26.50
15680;BMP180;15488;48.114;11.532;2023-08-12T02:05:17;95749.00;;;26.40
15680;BMP180;15488;48.114;11.532;2023-08-12T02:07:45;95754.00;;;26.40
15680;BMP180;15488;48.114;11.532;2023-08-12T02:10:12;95745.00;;;26.40
15680;BMP180;15488;48.114;11.532;2023-08-12T02:12:42;95750.00;;;26.40
15680;BMP180;15488;48.114;11.532;2023-08-12T02:15:10;95752.00;;;26.40
15680;BMP180;15488;48.114;11.532;2023-08-12T02:17:38;95744.00;;;26.30
15680;BMP180;15488;48.114;11.532;2023-08-12T02:20:06;95732.00;;;26.30
15680;BMP180;15488;48.114;11.532;2023-08-12T02:22:34;95724.00;;;26.30
15680;BMP180;15488;48.114;11.532;2023-08-12T02:25:01;95723.00;;;26.30
15680;BMP180;15488;48.114;11.532;2023-08-12T02:27:29;95726.00;;;26.30
15680;BMP180;15488;48.114;11.532;2023-08-12T02:29:58;95711.00;;;26.30
15680;BMP180;15488;48.114;11.532;2023-08-12T02:32:25;95715.00;;;26.30
15680;BMP180;15488;48.114;11.532;2023-08-12T02:34:53;95717.00;;;26.20
15680;BMP180;15488;48.114;11.532;2023-08-12T02:37:20;95714.00;;;26.20
15680;BMP180;15488;48.114;11.532;2023-08-12T02:39:48;95715.00;;;26.20
15680;BMP180;15488;48.114;11.532;2023-08-12T02:42:15;95709.00;;;26.20
15680;BMP180;15488;48.114;11.532;2023-08-12T02:44:42;95715.00;;;26.20
15680;BMP180;15488;48.114;11.532;2023-08-12T02:47:11;95703.00;;;26.10
15680;BMP180;15488;48.114;11.532;2023-08-12T02:49:39;95706.00;;;26.10
15680;BMP180;15488;48.114;11.532;2023-08-12T02:52:06;95703.00;;;26.10
15680;BMP180;15488;48.114;11.532;2023-08-12T02:54:33;95703.00;;;26.10
15680;BMP180;15488;48.114;11.532;2023-08-12T02:57:01;95694.00;;;26.10
15680;BMP180;15488;48.114;11.532;2023-08-12T02:59:28;95700.00;;;26.10
15680;BMP180;15488;48.114;11.532;2023-08-12T03:01:56;95694.00;;;26.10
15680;BMP180;15488;48.114;11.532;2023-08-12T03:04:25;95699.00;;;26.00
15680;BMP180;15488;48.114;11.532;2023-08-12T03:06:52;95699.00;;;26.00
15680;BMP180;15488;48.114;11.532;2023-08-12T03:09:19;95702.00;;;26.00
15680;BMP180;15488;48.114;11.532;2023-08-12T03:11:47;95700.00;;;26.00
15680;BMP180;15488;48.114;11.532;2023-08-12T03:14:15;95707.00;;;26.00
15680;BMP180;15488;48.114;11.532;2023-08-12T03:16:42;95701.00;;;26.00
15680;BMP180;15488;48.114;11.532;2023-08-12T03:19:09;95701.00;;;25.90
15680;BMP180;15488;48.114;11.532;2023-08-12T03:21:38;95706.00;;;25.90
15680;BMP180;15488;48.114;11.532;2023-08-12T03:24:06;95697.00;;;25.90
15680;BMP180;15488;48.114;11.532;2023-08-12T03:26:34;95700.00;;;25.90
15680;BMP180;15488;48.114;11.532;2023-08-12T03:29:01;95696.00;;;25.90
15680;BMP180;15488;48.114;11.532;2023-08-12T03:31:28;95699.00;;;25.90
15680;BMP180;15488;48.114;11.532;2023-08-12T03:33:56;95695.00;;;25.90
15680;BMP180;15488;48.114;11.532;2023-08-12T03:36:23;95698.00;;;25.80
15680;BMP180;15488;48.114;11.532;2023-08-12T03:38:52;95697.00;;;25.80
15680;BMP180;15488;48.114;11.532;2023-08-12T03:41:19;95698.00;;;25.80
15680;BMP180;15488;48.114;11.532;2023-08-12T03:43:47;95700.00;;;25.80
15680;BMP180;15488;48.114;11.532;2023-08-12T03:46:15;95697.00;;;25.80
15680;BMP180;15488;48.114;11.532;2023-08-12T03:48:43;95696.00;;;25.80
15680;BMP180;15488;48.114;11.532;2023-08-12T03:51:10;95693.00;;;25.70
15680;BMP180;15488;48.114;11.532;2023-08-12T03:53:38;95698.00;;;25.70
15680;BMP180;15488;48.114;11.532;2023-08-12T03:56:06;95692.00;;;25.70
15680;BMP180;15488;48.114;11.532;2023-08-12T03:58:34;95687.00;;;25.70
15680;BMP180;15488;48.114;11.532;2023-08-12T04:01:01;95691.00;;;25.70
15680;BMP180;15488;48.114;11.532;2023-08-12T04:03:29;95685.00;;;25.70
15680;BMP180;15488;48.114;11.532;2023-08-12T04:05:56;95683.00;;;25.70
15680;BMP180;15488;48.114;11.532;2023-08-12T04:08:24;95695.00;;;25.70
15680;BMP180;15488;48.114;11.532;2023-08-12T04:10:52;95693.00;;;25.60
15680;BMP180;15488;48.114;11.532;2023-08-12T04:13:20;95688.00;;;25.60
15680;BMP180;15488;48.114;11.532;2023-08-12T04:15:50;95687.00;;;25.60
15680;BMP180;15488;48.114;11.532;2023-08-12T04:18:19;95691.00;;;25.60
15680;BMP180;15488;48.114;11.532;2023-08-12T04:20:47;95690.00;;;25.60
15680;BMP180;15488;48.114;11.532;2023-08-12T04:23:15;95692.00;;;25.60
15680;BMP180;15488;48.114;11.532;2023-08-12T04:25:44;95689.00;;;25.60
15680;BMP180;15488;48.114;11.532;2023-08-12T04:28:11;95688.00;;;25.60
15680;BMP180;15488;48.114;11.532;2023-08-12T04:30:42;95688.00;;;25.50
15680;BMP180;15488;48.114;11.532;2023-08-12T04:33:12;95688.00;;;25.50
15680;BMP180;15488;48.114;11.532;2023-08-12T04:35:41;95688.00;;;25.50
15680;BMP180;15488;48.114;11.532;2023-08-12T04:38:08;95689.00;;;25.50
15680;BMP180;15488;48.114;11.532;2023-08-12T04:40:38;95693.00;;;25.50
15680;BMP180;15488;48.114;11.532;2023-08-12T04:43:07;95695.00;;;25.50
15680;BMP180;15488;48.114;11.532;2023-08-12T04:45:34;95701.00;;;25.50
15680;BMP180;15488;48.114;11.532;2023-08-12T04:48:03;95703.00;;;25.50
15680;BMP180;15488;48.114;11.532;2023-08-12T04:50:31;95697.00;;;25.50
15680;BMP180;15488;48.114;11.532;2023-08-12T04:53:00;95696.00;;;25.50
15680;BMP180;15488;48.114;11.532;2023-08-12T04:55:28;95695.00;;;25.50
15680;BMP180;15488;48.114;11.532;2023-08-12T04:57:55;95695.00;;;25.50
15680;BMP180;15488;48.114;11.532;2023-08-12T05:00:23;95691.00;;;25.50
15680;BMP180;15488;48.114;11.532;2023-08-12T05:02:50;95694.00;;;25.50
15680;BMP180;15488;48.114;11.532;2023-08-12T05:05:19;95688.00;;;25.50
15680;BMP180;15488;48.114;11.532;2023-08-12T05:07:47;95687.00;;;25.50
15680;BMP180;15488;48.114;11.532;2023-08-12T05:10:15;95691.00;;;25.60
15680;BMP180;15488;48.114;11.532;2023-08-12T05:12:43;95692.00;;;25.60
15680;BMP180;15488;48.114;11.532;2023-08-12T05:15:11;95686.00;;;25.60
15680;BMP180;15488;48.114;11.532;2023-08-12T05:17:38;95688.00;;;25.60
15680;BMP180;15488;48.114;11.532;2023-08-12T05:20:07;95686.00;;;25.60
15680;BMP180;15488;48.114;11.532;2023-08-12T05:22:36;95682.00;;;25.60
15680;BMP180;15488;48.114;11.532;2023-08-12T05:25:04;95684.00;;;25.60
15680;BMP180;15488;48.114;11.532;2023-08-12T05:27:32;95687.00;;;25.60
15680;BMP180;15488;48.114;11.532;2023-08-12T05:29:59;95692.00;;;25.60
15680;BMP180;15488;48.114;11.532;2023-08-12T05:32:27;95690.00;;;25.70
15680;BMP180;15488;48.114;11.532;2023-08-12T05:34:55;95692.00;;;25.70
15680;BMP180;15488;48.114;11.532;2023-08-12T05:37:23;95692.00;;;25.70
15680;BMP180;15488;48.114;11.532;2023-08-12T05:39:51;95693.00;;;25.70
15680;BMP180;15488;48.114;11.532;2023-08-12T05:42:19;95699.00;;;25.70
15680;BMP180;15488;48.114;11.532;2023-08-12T05:44:46;95701.00;;;25.70
15680;BMP180;15488;48.114;11.532;2023-08-12T05:47:14;95700.00;;;25.70
15680;BMP180;15488;48.114;11.532;2023-08-12T05:49:41;95701.00;;;25.80
15680;BMP180;15488;48.114;11.532;2023-08-12T05:52:09;95694.00;;;25.80
15680;BMP180;15488;48.114;11.532;2023-08-12T05:54:37;95701.00;;;25.80
15680;BMP180;15488;48.114;11.532;2023-08-12T05:57:05;95695.00;;;25.80
15680;BMP180;15488;48.114;11.532;2023-08-12T05:59:33;95695.00;;;25.90
15680;BMP180;15488;48.114;11.532;2023-08-12T06:02:00;95696.00;;;25.90
15680;BMP180;15488;48.114;11.532;2023-08-12T06:04:28;95693.00;;;25.90
15680;BMP180;15488;48.114;11.532;2023-08-12T06:06:55;95694.00;;;26.00
15680;BMP180;15488;48.114;11.532;2023-08-12T06:09:22;95689.00;;;26.00
15680;BMP180;15488;48.114;11.532;2023-08-12T06:11:50;95684.00;;;26.10
15680;BMP180;15488;48.114;11.532;2023-08-12T06:14:19;95687.00;;;26.10
15680;BMP180;15488;48.114;11.532;2023-08-12T06:16:46;95686.00;;;26.10
15680;BMP180;15488;48.114;11.532;2023-08-12T06:19:13;95685.00;;;26.20
15680;BMP180;15488;48.114;11.532;2023-08-12T06:21:41;95684.00;;;26.20
15680;BMP180;15488;48.114;11.532;2023-08-12T06:24:08;95684.00;;;26.30
15680;BMP180;15488;48.114;11.532;2023-08-12T06:26:36;95692.00;;;26.30
15680;BMP180;15488;48.114;11.532;2023-08-12T06:29:03;95694.00;;;26.40
15680;BMP180;15488;48.114;11.532;2023-08-12T06:31:32;95688.00;;;26.40
15680;BMP180;15488;48.114;11.532;2023-08-12T06:33:59;95693.00;;;26.50
15680;BMP180;15488;48.114;11.532;2023-08-12T06:36:27;95688.00;;;26.50
15680;BMP180;15488;48.114;11.532;2023-08-12T06:38:54;95690.00;;;26.60
15680;BMP180;15488;48.114;11.532;2023-08-12T06:41:22;95682.00;;;26.60
15680;BMP180;15488;48.114;11.532;2023-08-12T06:43:49;95687.00;;;26.70
15680;BMP180;15488;48.114;11.532;2023-08-12T06:46:17;95678.00;;;26.70
15680;BMP180;15488;48.114;11.532;2023-08-12T06:48:45;95676.00;;;26.70
15680;BMP180;15488;48.114;11.532;2023-08-12T06:51:13;95674.00;;;26.80
15680;BMP180;15488;48.114;11.532;2023-08-12T06:53:40;95674.00;;;26.80
15680;BMP180;15488;48.114;11.532;2023-08-12T06:56:08;95624.00;;;26.90
15680;BMP180;15488;48.114;11.532;2023-08-12T06:58:35;95667.00;;;26.90
15680;BMP180;15488;48.114;11.532;2023-08-12T07:01:03;95667.00;;;27.00
15680;BMP180;15488;48.114;11.532;2023-08-12T07:03:30;95669.00;;;27.00
15680;BMP180;15488;48.114;11.532;2023-08-12T07:06:00;95668.00;;;27.10
15680;BMP180;15488;48.114;11.532;2023-08-12T07:08:27;95665.00;;;27.10
15680;BMP180;15488;48.114;11.532;2023-08-12T07:10:55;95669.00;;;27.20
15680;BMP180;15488;48.114;11.532;2023-08-12T07:13:22;95665.00;;;27.30
15680;BMP180;15488;48.114;11.532;2023-08-12T07:15:50;95673.00;;;27.30
15680;BMP180;15488;48.114;11.532;2023-08-12T07:18:17;95672.00;;;27.40
15680;BMP180;15488;48.114;11.532;2023-08-12T07:20:44;95665.00;;;27.50
15680;BMP180;15488;48.114;11.532;2023-08-12T07:23:13;95659.00;;;27.50
15680;BMP180;15488;48.114;11.532;2023-08-12T07:25:41;95659.00;;;27.60
15680;BMP180;15488;48.114;11.532;2023-08-12T07:28:08;95665.00;;;27.70
15680;BMP180;15488;48.114;11.532;2023-08-12T07:30:35;95665.00;;;27.80
15680;BMP180;15488;48.114;11.532;2023-08-12T07:33:04;95661.00;;;27.80
15680;BMP180;15488;48.114;11.532;2023-08-12T07:35:31;95663.00;;;27.90
15680;BMP180;15488;48.114;11.532;2023-08-12T07:37:58;95665.00;;;28.00
15680;BMP180;15488;48.114;11.532;2023-08-12T07:40:27;95662.00;;;28.10
15680;BMP180;15488;48.114;11.532;2023-08-12T07:42:55;95659.00;;;28.20
15680;BMP180;15488;48.114;11.532;2023-08-12T07:45:22;95657.00;;;28.30
15680;BMP180;15488;48.114;11.532;2023-08-12T07:47:50;95653.00;;;28.40
15680;BMP180;15488;48.114;11.532;2023-08-12T07:50:18;95660.00;;;28.50
15680;BMP180;15488;48.114;11.532;2023-08-12T07:52:46;95662.00;;;28.60
15680;BMP180;15488;48.114;11.532;2023-08-12T07:55:13;95665.00;;;28.70
15680;BMP180;15488;48.114;11.532;2023-08-12T07:57:44;95662.00;;;28.80
15680;BMP180;15488;48.114;11.532;2023-08-12T08:00:12;95666.00;;;28.80
15680;BMP180;15488;48.114;11.532;2023-08-12T08:02:39;95660.00;;;28.90
15680;BMP180;15488;48.114;11.532;2023-08-12T08:05:07;95663.00;;;29.00
15680;BMP180;15488;48.114;11.532;2023-08-12T08:07:35;95662.00;;;29.20
15680;BMP180;15488;48.114;11.532;2023-08-12T08:10:03;95662.00;;;29.30
15680;BMP180;15488;48.114;11.532;2023-08-12T08:12:30;95667.00;;;29.40
15680;BMP180;15488;48.114;11.532;2023-08-12T08:14:59;95660.00;;;29.50
15680;BMP180;15488;48.114;11.532;2023-08-12T08:17:26;95665.00;;;29.60
15680;BMP180;15488;48.114;11.532;2023-08-12T08:19:54;95666.00;;;29.70
15680;BMP180;15488;48.114;11.532;2023-08-12T08:22:21;95662.00;;;29.80
15680;BMP180;15488;48.114;11.532;2023-08-12T08:24:49;95656.00;;;29.90
15680;BMP180;15488;48.114;11.532;2023-08-12T08:27:16;95662.00;;;30.00
15680;BMP180;15488;48.114;11.532;2023-08-12T08:29:43;95661.00;;;30.10
15680;BMP180;15488;48.114;11.532;2023-08-12T08:32:12;95658.00;;;30.20
15680;BMP180;15488;48.114;11.532;2023-08-12T08:34:40;95660.00;;;30.30
15680;BMP180;15488;48.114;11.532;2023-08-12T08:37:07;95664.00;;;30.40
15680;BMP180;15488;48.114;11.532;2023-08-12T08:39:35;95667.00;;;30.50
15680;BMP180;15488;48.114;11.532;2023-08-12T08:42:03;95662.00;;;30.60
15680;BMP180;15488;48.114;11.532;2023-08-12T08:44:33;95667.00;;;30.70
15680;BMP180;15488;48.114;11.532;2023-08-12T08:47:01;95662.00;;;30.80
15680;BMP180;15488;48.114;11.532;2023-08-12T08:49:32;95667.00;;;30.80
15680;BMP180;15488;48.114;11.532;2023-08-12T08:52:00;95672.00;;;30.80
15680;BMP180;15488;48.114;11.532;2023-08-12T08:54:28;95677.00;;;30.90
15680;BMP180;15488;48.114;11.532;2023-08-12T08:56:55;95676.00;;;31.00
15680;BMP180;15488;48.114;11.532;2023-08-12T08:59:23;95678.00;;;31.10
15680;BMP180;15488;48.114;11.532;2023-08-12T09:01:52;95675.00;;;31.10
15680;BMP180;15488;48.114;11.532;2023-08-12T09:04:22;95677.00;;;31.20
15680;BMP180;15488;48.114;11.532;2023-08-12T09:06:52;95679.00;;;31.30
15680;BMP180;15488;48.114;11.532;2023-08-12T09:09:21;95682.00;;;31.30
15680;BMP180;15488;48.114;11.532;2023-08-12T09:11:49;95680.00;;;31.40
15680;BMP180;15488;48.114;11.532;2023-08-12T09:14:19;95684.00;;;31.50
15680;BMP180;15488;48.114;11.532;2023-08-12T09:16:46;95676.00;;;31.50
15680;BMP180;15488;48.114;11.532;2023-08-12T09:19:14;95681.00;;;31.60
15680;BMP180;15488;48.114;11.532;2023-08-12T09:21:41;95694.00;;;31.70
15680;BMP180;15488;48.114;11.532;2023-08-12T09:24:10;95686.00;;;31.70
15680;BMP180;15488;48.114;11.532;2023-08-12T09:26:43;95684.00;;;31.70
15680;BMP180;15488;48.114;11.532;2023-08-12T09:29:10;95682.00;;;31.80
15680;BMP180;15488;48.114;11.532;2023-08-12T09:31:38;95688.00;;;31.80
15680;BMP180;15488;48.114;11.532;2023-08-12T09:34:06;95684.00;;;31.90
15680;BMP180;15488;48.114;11.532;2023-08-12T09:36:34;95680.00;;;32.00
15680;BMP180;15488;48.114;11.532;2023-08-12T09:39:06;95691.00;;;32.10
15680;BMP180;15488;48.114;11.532;2023-08-12T09:41:37;95682.00;;;32.10
15680;BMP180;15488;48.114;11.532;2023-08-12T09:44:05;95682.00;;;32.10
15680;BMP180;15488;48.114;11.532;2023-08-12T09:46:33;95683.00;;;32.20
15680;BMP180;15488;48.114;11.532;2023-08-12T09:49:01;95686.00;;;32.20
15680;BMP180;15488;48.114;11.532;2023-08-12T09:51:35;95685.00;;;32.20
15680;BMP180;15488;48.114;11.532;2023-08-12T09:54:03;95690.00;;;32.20
15680;BMP180;15488;48.114;11.532;2023-08-12T09:56:36;95693.00;;;32.30
15680;BMP180;15488;48.114;11.532;2023-08-12T09:59:06;95685.00;;;32.30
15680;BMP180;15488;48.114;11.532;2023-08-12T10:01:34;95686.00;;;32.40
15680;BMP180;15488;48.114;11.532;2023-08-12T10:04:02;95679.00;;;32.40
15680;BMP180;15488;48.114;11.532;2023-08-12T10:06:31;95674.00;;;32.40
15680;BMP180;15488;48.114;11.532;2023-08-12T10:09:00;95679.00;;;32.50
15680;BMP180;15488;48.114;11.532;2023-08-12T10:11:27;95672.00;;;32.50
15680;BMP180;15488;48.114;11.532;2023-08-12T10:13:57;95677.00;;;32.50
15680;BMP180;15488;48.114;11.532;2023-08-12T10:16:25;95677.00;;;32.50
15680;BMP180;15488;48.114;11.532;2023-08-12T10:18:54;95679.00;;;32.60
15680;BMP180;15488;48.114;11.532;2023-08-12T10:21:23;95681.00;;;32.60
15680;BMP180;15488;48.114;11.532;2023-08-12T10:23:51;95677.00;;;32.60
15680;BMP180;15488;48.114;11.532;2023-08-12T10:26:20;95677.00;;;32.60
15680;BMP180;15488;48.114;11.532;2023-08-12T10:28:49;95678.00;;;32.70
15680;BMP180;15488;48.114;11.532;2023-08-12T10:31:19;95679.00;;;32.70
15680;BMP180;15488;48.114;11.532;2023-08-12T10:33:46;95669.00;;;32.70
15680;BMP180;15488;48.114;11.532;2023-08-12T10:36:16;95674.00;;;32.80
15680;BMP180;15488;48.114;11.532;2023-08-12T10:38:45;95671.00;;;32.80
15680;BMP180;15488;48.114;11.532;2023-08-12T10:41:17;95670.00;;;32.90
15680;BMP180;15488;48.114;11.532;2023-08-12T10:43:55;95677.00;;;32.90
15680;BMP180;15488;48.114;11.532;2023-08-12T10:46:29;95671.00;;;32.90
15680;BMP180;15488;48.114;11.532;2023-08-12T10:49:07;95671.00;;;32.80
15680;BMP180;15488;48.114;11.532;2023-08-12T10:51:46;95668.00;;;32.90
15680;BMP180;15488;48.114;11.532;2023-08-12T10:54:16;95666.00;;;32.90
15680;BMP180;15488;48.114;11.532;2023-08-12T10:57:06;95668.00;;;33.00
15680;BMP180;15488;48.114;11.532;2023-08-12T10:59:53;95666.00;;;33.10
15680;BMP180;15488;48.114;11.532;2023-08-12T11:02:27;95656.00;;;33.10
15680;BMP180;15488;48.114;11.532;2023-08-12T11:04:56;95663.00;;;33.10
15680;BMP180;15488;48.114;11.532;2023-08-12T11:07:32;95653.00;;;33.10
15680;BMP180;15488;48.114;11.532;2023-08-12T11:10:03;95662.00;;;33.10
15680;BMP180;15488;48.114;11.532;2023-08-12T11:12:33;95649.00;;;33.10
15680;BMP180;15488;48.114;11.532;2023-08-12T11:15:02;95651.00;;;33.10
15680;BMP180;15488;48.114;11.532;2023-08-12T11:17:35;95652.00;;;33.20
15680;BMP180;15488;48.114;11.532;2023-08-12T11:20:04;95658.00;;;33.20
15680;BMP180;15488;48.114;11.532;2023-08-12T11:22:35;95655.00;;;33.20
15680;BMP180;15488;48.114;11.532;2023-08-12T11:25:03;95647.00;;;33.20
15680;BMP180;15488;48.114;11.532;2023-08-12T11:27:37;95649.00;;;33.30
15680;BMP180;15488;48.114;11.532;2023-08-12T11:30:06;95641.00;;;33.40
15680;BMP180;15488;48.114;11.532;2023-08-12T11:32:35;95629.00;;;33.50
15680;BMP180;15488;48.114;11.532;2023-08-12T11:35:04;95628.00;;;33.60
15680;BMP180;15488;48.114;11.532;2023-08-12T11:37:32;95627.00;;;33.60
15680;BMP180;15488;48.114;11.532;2023-08-12T11:40:00;95625.00;;;33.60
15680;BMP180;15488;48.114;11.532;2023-08-12T11:42:28;95637.00;;;33.80
15680;BMP180;15488;48.114;11.532;2023-08-12T11:44:56;95628.00;;;33.80
15680;BMP180;15488;48.114;11.532;2023-08-12T11:47:23;95633.00;;;33.80
15680;BMP180;15488;48.114;11.532;2023-08-12T11:49:53;95626.00;;;33.90
15680;BMP180;15488;48.114;11.532;2023-08-12T11:52:21;95624.00;;;34.00
15680;BMP180;15488;48.114;11.532;2023-08-12T11:54:50;95623.00;;;34.10
15680;BMP180;15488;48.114;11.532;2023-08-12T11:57:17;95629.00;;;34.30
15680;BMP180;15488;48.114;11.532;2023-08-12T11:59:45;95623.00;;;34.40
15680;BMP180;15488;48.114;11.532;2023-08-12T12:02:12;95619.00;;;34.50
15680;BMP180;15488;48.114;11.532;2023-08-12T12:04:42;95617.00;;;34.60
15680;BMP180;15488;48.114;11.532;2023-08-12T12:07:21;95628.00;;;34.70
15680;BMP180;15488;48.114;11.532;2023-08-12T12:09:51;95622.00;;;34.90
15680;BMP180;15488;48.114;11.532;2023-08-12T12:12:22;95612.00;;;35.10
15680;BMP180;15488;48.114;11.532;2023-08-12T12:14:51;95622.00;;;35.20
15680;BMP180;15488;48.114;11.532;2023-08-12T12:17:21;95607.00;;;35.30
15680;BMP180;15488;48.114;11.532;2023-08-12T12:19:53;95610.00;;;35.50
15680;BMP180;15488;48.114;11.532;2023-08-12T12:22:26;95607.00;;;35.50
15680;BMP180;15488;48.114;11.532;2023-08-12T12:24:57;95617.00;;;35.60
15680;BMP180;15488;48.114;11.532;2023-08-12T12:27:24;95608.00;;;35.70
15680;BMP180;15488;48.114;11.532;2023-08-12T12:29:52;95605.00;;;35.80
15680;BMP180;15488;48.114;11.532;2023-08-12T12:32:20;95605.00;;;35.80
15680;BMP180;15488;48.114;11.532;2023-08-12T12:34:47;95614.00;;;35.80
15680;BMP180;15488;48.114;11.532;2023-08-12T12:37:15;95602.00;;;35.80
15680;BMP180;15488;48.114;11.532;2023-08-12T12:39:44;95604.00;;;35.90
15680;BMP180;15488;48.114;11.532;2023-08-12T12:42:11;95600.00;;;36.00
15680;BMP180;15488;48.114;11.532;2023-08-12T12:44:39;95605.00;;;36.00
15680;BMP180;15488;48.114;11.532;2023-08-12T12:47:06;95606.00;;;36.10
15680;BMP180;15488;48.114;11.532;2023-08-12T12:49:36;95596.00;;;36.10
15680;BMP180;15488;48.114;11.532;2023-08-12T12:52:03;95590.00;;;36.20
15680;BMP180;15488;48.114;11.532;2023-08-12T12:54:31;95589.00;;;36.20
15680;BMP180;15488;48.114;11.532;2023-08-12T12:57:00;95587.00;;;36.20
15680;BMP180;15488;48.114;11.532;2023-08-12T12:59:27;95589.00;;;36.30
15680;BMP180;15488;48.114;11.532;2023-08-12T13:01:55;95591.00;;;36.30
15680;BMP180;15488;48.114;11.532;2023-08-12T13:04:22;95587.00;;;36.30
15680;BMP180;15488;48.114;11.532;2023-08-12T13:06:50;95591.00;;;36.30
15680;BMP180;15488;48.114;11.532;2023-08-12T13:09:17;95584.00;;;36.20
15680;BMP180;15488;48.114;11.532;2023-08-12T13:11:45;95591.00;;;36.20
15680;BMP180;15488;48.114;11.532;2023-08-12T13:14:13;95600.00;;;36.30
15680;BMP180;15488;48.114;11.532;2023-08-12T13:16:42;95594.00;;;36.40
15680;BMP180;15488;48.114;11.532;2023-08-12T13:19:10;95588.00;;;36.40
15680;BMP180;15488;48.114;11.532;2023-08-12T13:21:37;95595.00;;;36.40
15680;BMP180;15488;48.114;11.532;2023-08-12T13:24:05;95592.00;;;36.60
15680;BMP180;15488;48.114;11.532;2023-08-12T13:26:33;95594.00;;;36.70
15680;BMP180;15488;48.114;11.532;2023-08-12T13:29:00;95591.00;;;36.80
15680;BMP180;15488;48.114;11.532;2023-08-12T13:31:29;95585.00;;;36.90
15680;BMP180;15488;48.114;11.532;2023-08-12T13:33:57;95583.00;;;37.00
15680;BMP180;15488;48.114;11.532;2023-08-12T13:36:24;95582.00;;;37.00
15680;BMP180;15488;48.114;11.532;2023-08-12T13:38:52;95573.00;;;37.10
15680;BMP180;15488;48.114;11.532;2023-08-12T13:41:19;95577.00;;;37.00
15680;BMP180;15488;48.114;11.532;2023-08-12T13:43:46;95580.00;;;37.00
15680;BMP180;15488;48.114;11.532;2023-08-12T13:46:14;95570.00;;;37.20
15680;BMP180;15488;48.114;11.532;2023-08-12T13:48:43;95576.00;;;37.50
15680;BMP180;15488;48.114;11.532;2023-08-12T13:51:10;95567.00;;;37.90
15680;BMP180;15488;48.114;11.532;2023-08-12T13:53:38;95578.00;;;38.20
15680;BMP180;15488;48.114;11.532;2023-08-12T13:56:05;95574.00;;;38.30
15680;BMP180;15488;48.114;11.532;2023-08-12T13:58:32;95571.00;;;38.20
15680;BMP180;15488;48.114;11.532;2023-08-12T14:01:00;95573.00;;;38.20
15680;BMP180;15488;48.114;11.532;2023-08-12T14:03:28;95575.00;;;38.20